Time;durP1;ratioP1;P1;durP2;ratioP2;P2;SDS_P1;SDS_P2;PMS_P1;PMS_P2;Temp;Humidity;BMP_temperature;BMP_pressure;BME280_temperature;BME280_humidity;BME280_pressure;Samples;Min_cycle;Max_cycle;Signal;HPM_P1;HPM_P2
2023/12/14 00:02:06;;;;;;;33.50;17.08;;;;;;;;;;6241592;23;20095;-95
2023/12/14 00:04:33;;;;;;;38.97;17.92;;;;;;;;;;6217591;23;20015;-95
2023/12/14 00:06:59;;;;;;;50.95;21.02;;;;;;;;;;6218022;23;20020;-95
2023/12/14 00:09:27;;;;;;;63.08;22.70;;;;;;;;;;6218117;23;20105;-95
2023/12/14 00:11:58;;;;;;;46.72;19.33;;;;;;;;;;6192354;23;20005;-95
2023/12/14 00:14:25;;;;;;;36.40;17.40;;;;;;;;;;6218013;23;19996;-96
2023/12/14 00:16:58;;;;;;;27.48;14.32;;;;;;;;;;6216771;23;20430;-94
2023/12/14 00:19:37;;;;;;;44.15;20.15;;;;;;;;;;6216712;23;20004;-94
2023/12/14 00:22:04;;;;;;;38.22;18.13;;;;;;;;;;6198578;23;20009;-93
2023/12/14 00:24:30;;;;;;;56.00;22.15;;;;;;;;;;6220091;23;20016;-94
2023/12/14 00:26:56;;;;;;;53.72;21.65;;;;;;;;;;6217377;23;20428;-93
2023/12/14 00:29:22;;;;;;;29.23;16.35;;;;;;;;;;6216381;23;20004;-94
2023/12/14 00:31:49;;;;;;;43.05;19.27;;;;;;;;;;6217441;23;20461;-95
2023/12/14 00:34:15;;;;;;;58.53;22.33;;;;;;;;;;6215174;23;20005;-94
2023/12/14 00:36:42;;;;;;;38.63;19.08;;;;;;;;;;6216252;23;20005;-94
2023/12/14 00:39:09;;;;;;;58.70;22.17;;;;;;;;;;6217105;23;20394;-94
2023/12/14 00:41:37;;;;;;;36.50;17.58;;;;;;;;;;6216801;23;20000;-93
2023/12/14 00:44:03;;;;;;;50.92;22.27;;;;;;;;;;6217803;23;20028;-93
2023/12/14 00:46:30;;;;;;;52.22;21.80;;;;;;;;;;6218948;23;20015;-94
2023/12/14 00:48:56;;;;;;;48.50;20.73;;;;;;;;;;6217994;23;20015;-93
2023/12/14 00:51:23;;;;;;;36.92;18.60;;;;;;;;;;6219303;23;20031;-95
2023/12/14 00:53:49;;;;;;;50.00;20.75;;;;;;;;;;6217882;23;20007;-95
2023/12/14 00:56:15;;;;;;;51.28;21.85;;;;;;;;;;6217831;23;20000;-94
2023/12/14 00:58:41;;;;;;;54.45;21.73;;;;;;;;;;6218031;23;20127;-95
2023/12/14 01:01:08;;;;;;;70.10;23.27;;;;;;;;;;6218556;23;20307;-94
2023/12/14 01:03:34;;;;;;;55.33;22.08;;;;;;;;;;6218330;23;20427;-94
2023/12/14 01:06:02;;;;;;;54.85;22.00;;;;;;;;;;6218395;23;20016;-95
2023/12/14 01:08:28;;;;;;;33.80;16.23;;;;;;;;;;6187209;23;20005;-95
2023/12/14 01:10:54;;;;;;;41.22;19.17;;;;;;;;;;6217268;23;20413;-95
2023/12/14 01:13:20;;;;;;;44.22;17.85;;;;;;;;;;6218151;23;20426;-94
2023/12/14 01:15:48;;;;;;;67.05;21.30;;;;;;;;;;6219232;23;20028;-94
2023/12/14 01:18:15;;;;;;;60.13;21.30;;;;;;;;;;6218723;23;20390;-95
2023/12/14 01:20:41;;;;;;;68.55;22.02;;;;;;;;;;6218567;23;20032;-94
2023/12/14 01:23:09;;;;;;;74.18;23.58;;;;;;;;;;6218016;23;20021;-95
2023/12/14 01:25:36;;;;;;;86.18;24.95;;;;;;;;;;6218359;23;20038;-94
2023/12/14 01:28:02;;;;;;;73.60;23.00;;;;;;;;;;6217852;23;20011;-95
2023/12/14 01:30:28;;;;;;;66.55;21.85;;;;;;;;;;6217853;23;20032;-93
2023/12/14 01:32:54;;;;;;;75.97;22.52;;;;;;;;;;6217868;23;20024;-94
2023/12/14 01:35:20;;;;;;;132.70;27.05;;;;;;;;;;6217188;23;20027;-95
2023/12/14 01:37:47;;;;;;;134.60;26.80;;;;;;;;;;6217519;23;20066;-94
2023/12/14 01:40:13;;;;;;;134.77;26.55;;;;;;;;;;6217201;23;20005;-94
2023/12/14 01:45:43;;;;;;;48.45;19.30;;;;;;;;;;6181373;23;20486;-95
2023/12/14 01:48:09;;;;;;;117.50;25.58;;;;;;;;;;6160452;23;20002;-96
2023/12/14 01:50:35;;;;;;;98.00;25.35;;;;;;;;;;6161249;23;20009;-96
2023/12/14 01:53:02;;;;;;;96.97;25.48;;;;;;;;;;6159688;23;20404;-95
2023/12/14 01:55:28;;;;;;;98.57;25.55;;;;;;;;;;6160179;23;20008;-96
2023/12/14 01:57:55;;;;;;;111.53;26.80;;;;;;;;;;6161198;23;20009;-96
2023/12/14 02:00:30;;;;;;;94.63;25.23;;;;;;;;;;6159111;23;20002;-95
2023/12/14 02:02:58;;;;;;;112.30;26.60;;;;;;;;;;6159997;23;20014;-96
2023/12/14 02:05:24;;;;;;;92.05;25.40;;;;;;;;;;6159233;23;20077;-95
2023/12/14 02:07:50;;;;;;;137.32;27.75;;;;;;;;;;6159356;23;20311;-96
2023/12/14 02:10:16;;;;;;;110.93;26.15;;;;;;;;;;6160796;23;20419;-96
2023/12/14 02:12:42;;;;;;;91.18;25.58;;;;;;;;;;6159647;23;20005;-96
2023/12/14 02:15:09;;;;;;;97.18;24.38;;;;;;;;;;6134671;23;20088;-96
2023/12/14 02:17:35;;;;;;;94.05;24.30;;;;;;;;;;6160277;23;20010;-94
2023/12/14 02:20:01;;;;;;;98.57;24.63;;;;;;;;;;6158755;23;20005;-96
2023/12/14 02:22:28;;;;;;;94.50;24.90;;;;;;;;;;6159211;23;20021;-96
2023/12/14 02:24:54;;;;;;;65.35;21.33;;;;;;;;;;6161617;23;20013;-96
2023/12/14 02:27:21;;;;;;;66.18;22.27;;;;;;;;;;6160992;23;20060;-95
2023/12/14 02:29:47;;;;;;;69.10;22.92;;;;;;;;;;6165979;23;20017;-94
2023/12/14 02:32:13;;;;;;;89.85;24.38;;;;;;;;;;6182582;23;20008;-94
2023/12/14 02:34:40;;;;;;;82.80;24.92;;;;;;;;;;6180319;23;20017;-95
2023/12/14 02:37:08;;;;;;;61.60;21.50;;;;;;;;;;6176181;23;20012;-96
2023/12/14 02:39:34;;;;;;;74.50;22.38;;;;;;;;;;6160163;23;20446;-96
2023/12/14 02:42:00;;;;;;;76.22;23.33;;;;;;;;;;6159702;23;20047;-96
2023/12/14 02:44:26;;;;;;;62.90;21.42;;;;;;;;;;6159912;23;20013;-96
2023/12/14 02:46:52;;;;;;;81.25;23.75;;;;;;;;;;6160701;23;20013;-94
2023/12/14 02:49:18;;;;;;;100.45;23.52;;;;;;;;;;6166862;23;20029;-94
2023/12/14 02:51:44;;;;;;;99.78;24.60;;;;;;;;;;6165457;23;20085;-96
2023/12/14 02:54:11;;;;;;;58.22;20.42;;;;;;;;;;6159848;23;20037;-94
2023/12/14 02:56:37;;;;;;;58.78;20.88;;;;;;;;;;6159782;23;20005;-94
2023/12/14 02:59:03;;;;;;;50.75;18.95;;;;;;;;;;6159912;23;20005;-96
2023/12/14 03:01:29;;;;;;;97.50;25.48;;;;;;;;;;6158789;23;20002;-96
2023/12/14 03:03:55;;;;;;;39.35;17.98;;;;;;;;;;6158692;23;20037;-94
2023/12/14 03:06:21;;;;;;;79.45;23.70;;;;;;;;;;6157166;23;20013;-94
2023/12/14 03:08:47;;;;;;;39.30;18.15;;;;;;;;;;6157714;23;20446;-95
2023/12/14 03:11:23;;;;;;;70.63;22.95;;;;;;;;;;6158143;23;20010;-95
2023/12/14 03:13:49;;;;;;;66.45;21.77;;;;;;;;;;6158825;23;20006;-95
2023/12/14 03:16:16;;;;;;;74.53;23.58;;;;;;;;;;6158723;23;20072;-96
2023/12/14 03:18:43;;;;;;;51.03;19.65;;;;;;;;;;6157987;23;20012;-95
2023/12/14 03:21:10;;;;;;;76.13;23.65;;;;;;;;;;6157793;23;20032;-95
2023/12/14 03:23:36;;;;;;;89.03;23.63;;;;;;;;;;6158150;23;20021;-96
2023/12/14 03:26:02;;;;;;;52.67;19.83;;;;;;;;;;6158057;23;20463;-96
2023/12/14 03:28:29;;;;;;;48.78;20.17;;;;;;;;;;6159511;23;20009;-95
2023/12/14 03:30:55;;;;;;;65.82;22.58;;;;;;;;;;6158087;23;20032;-94
2023/12/14 03:33:22;;;;;;;72.85;24.92;;;;;;;;;;6159215;23;20012;-95
2023/12/14 03:35:48;;;;;;;58.65;22.77;;;;;;;;;;6158396;23;20006;-95
2023/12/14 03:38:14;;;;;;;59.35;21.77;;;;;;;;;;6157708;23;20006;-96
2023/12/14 03:40:40;;;;;;;38.65;17.60;;;;;;;;;;6156996;23;20025;-94
2023/12/14 03:43:06;;;;;;;70.55;21.20;;;;;;;;;;6156715;23;20108;-95
2023/12/14 03:45:33;;;;;;;44.42;19.05;;;;;;;;;;6156646;23;20041;-96
2023/12/14 03:47:59;;;;;;;40.55;17.50;;;;;;;;;;6137185;23;20032;-95
2023/12/14 03:50:25;;;;;;;60.38;21.60;;;;;;;;;;6156662;23;20001;-95
2023/12/14 03:52:51;;;;;;;63.15;22.65;;;;;;;;;;6157467;23;20008;-95
2023/12/14 03:55:17;;;;;;;34.47;17.05;;;;;;;;;;6156868;23;20363;-95
2023/12/14 03:57:43;;;;;;;33.22;17.00;;;;;;;;;;6156237;23;20006;-95
2023/12/14 04:00:13;;;;;;;36.13;18.25;;;;;;;;;;6156536;23;20093;-95
2023/12/14 04:02:42;;;;;;;45.03;20.60;;;;;;;;;;6156366;23;20006;-95
2023/12/14 04:05:09;;;;;;;44.47;21.55;;;;;;;;;;6157099;23;20009;-95
2023/12/14 04:07:36;;;;;;;47.85;21.42;;;;;;;;;;6157589;23;20012;-95
2023/12/14 04:10:02;;;;;;;35.10;17.70;;;;;;;;;;6157919;23;20009;-96
2023/12/14 04:12:30;;;;;;;35.83;17.10;;;;;;;;;;6157681;23;20036;-95
2023/12/14 04:14:56;;;;;;;32.28;16.05;;;;;;;;;;6156284;23;20039;-94
2023/12/14 04:17:22;;;;;;;33.45;17.02;;;;;;;;;;6157464;23;20388;-95
2023/12/14 04:19:49;;;;;;;35.22;17.80;;;;;;;;;;6157311;23;20065;-95
2023/12/14 04:22:15;;;;;;;36.90;16.27;;;;;;;;;;6157118;23;20013;-95
2023/12/14 04:24:41;;;;;;;28.77;14.52;;;;;;;;;;6156863;23;20013;-95
2023/12/14 04:27:07;;;;;;;34.88;16.55;;;;;;;;;;6157686;23;20001;-94
2023/12/14 04:29:33;;;;;;;31.38;15.45;;;;;;;;;;6157787;23;20016;-94
2023/12/14 04:32:00;;;;;;;31.40;16.05;;;;;;;;;;6157598;23;20089;-96
2023/12/14 04:34:26;;;;;;;33.10;15.55;;;;;;;;;;6157385;23;20023;-95
2023/12/14 04:36:57;;;;;;;26.73;14.57;;;;;;;;;;6157615;23;20025;-95
2023/12/14 04:39:24;;;;;;;35.13;16.25;;;;;;;;;;6157700;23;20029;-96
2023/12/14 04:41:51;;;;;;;26.45;15.35;;;;;;;;;;6157750;23;20021;-95
2023/12/14 04:44:17;;;;;;;30.48;15.63;;;;;;;;;;6157198;23;20021;-95
2023/12/14 04:46:43;;;;;;;42.83;19.15;;;;;;;;;;6157826;23;20101;-94
2023/12/14 04:49:09;;;;;;;35.70;17.23;;;;;;;;;;6157045;23;20037;-95
2023/12/14 04:51:36;;;;;;;26.73;14.20;;;;;;;;;;6157496;23;20002;-96
2023/12/14 04:54:02;;;;;;;32.42;16.63;;;;;;;;;;6157821;23;20010;-95
2023/12/14 04:56:28;;;;;;;27.75;14.55;;;;;;;;;;6158007;23;20316;-96
2023/12/14 04:58:54;;;;;;;23.40;12.85;;;;;;;;;;6157725;23;20037;-95
2023/12/14 05:01:20;;;;;;;20.15;11.82;;;;;;;;;;6157704;23;20002;-95
2023/12/14 05:03:47;;;;;;;19.25;10.73;;;;;;;;;;6159487;23;20013;-96
2023/12/14 05:06:13;;;;;;;15.35;9.30;;;;;;;;;;6158247;23;20002;-93
2023/12/14 05:08:39;;;;;;;18.52;10.38;;;;;;;;;;6157717;23;20014;-96
2023/12/14 05:11:06;;;;;;;20.85;11.95;;;;;;;;;;6157101;23;20013;-94
2023/12/14 05:13:32;;;;;;;25.75;13.88;;;;;;;;;;6159343;23;20049;-93
2023/12/14 05:15:58;;;;;;;22.15;12.82;;;;;;;;;;6182398;23;20053;-96
2023/12/14 05:18:26;;;;;;;25.27;14.10;;;;;;;;;;6178969;23;20069;-95
2023/12/14 05:20:53;;;;;;;29.60;15.02;;;;;;;;;;6174858;23;20053;-96
2023/12/14 05:23:20;;;;;;;23.38;13.20;;;;;;;;;;6157260;23;20041;-96
2023/12/14 05:25:47;;;;;;;26.05;14.10;;;;;;;;;;6158384;23;20072;-95
2023/12/14 05:31:38;;;;;;;24.97;14.03;;;;;;;;;;6161754;23;20092;-96
2023/12/14 05:34:04;;;;;;;23.00;13.75;;;;;;;;;;6161126;23;20238;-96
2023/12/14 05:39:45;;;;;;;33.37;16.83;;;;;;;;;;6158904;23;20534;-94
2023/12/14 05:42:11;;;;;;;30.02;16.05;;;;;;;;;;6156919;23;20010;-95
2023/12/14 05:44:37;;;;;;;25.23;14.35;;;;;;;;;;6156502;23;20431;-95
2023/12/14 05:47:04;;;;;;;25.60;14.38;;;;;;;;;;6157553;23;20022;-94
2023/12/14 05:49:30;;;;;;;30.40;15.52;;;;;;;;;;6157837;23;20503;-96
2023/12/14 05:51:59;;;;;;;29.08;14.38;;;;;;;;;;6158579;23;20062;-96
2023/12/14 05:54:25;;;;;;;22.85;12.60;;;;;;;;;;6157523;23;20356;-95
2023/12/14 05:56:51;;;;;;;21.85;10.98;;;;;;;;;;6157624;23;20336;-93
2023/12/14 05:59:17;;;;;;;18.85;11.57;;;;;;;;;;6160103;23;20033;-93
2023/12/14 06:01:43;;;;;;;20.60;11.65;;;;;;;;;;6157479;23;20005;-95
2023/12/14 06:04:09;;;;;;;16.55;9.88;;;;;;;;;;6158257;23;20013;-92
2023/12/14 06:06:38;;;;;;;17.65;10.90;;;;;;;;;;6162011;23;20006;-94
2023/12/14 06:09:07;;;;;;;23.15;13.23;;;;;;;;;;6159080;23;20077;-91
2023/12/14 06:11:33;;;;;;;17.92;10.68;;;;;;;;;;6161233;23;20012;-94
2023/12/14 06:13:59;;;;;;;22.83;12.45;;;;;;;;;;6161452;23;20009;-93
2023/12/14 06:16:26;;;;;;;17.30;11.05;;;;;;;;;;6163440;23;20305;-92
2023/12/14 06:18:52;;;;;;;19.42;12.32;;;;;;;;;;6157102;23;20009;-94
2023/12/14 06:21:18;;;;;;;20.15;12.52;;;;;;;;;;6132513;23;20085;-93
2023/12/14 06:23:44;;;;;;;19.55;11.80;;;;;;;;;;6156926;23;20104;-94
2023/12/14 06:26:10;;;;;;;16.73;10.98;;;;;;;;;;6157742;23;20037;-95
2023/12/14 06:28:36;;;;;;;22.23;12.40;;;;;;;;;;6158095;23;20072;-95
2023/12/14 06:31:02;;;;;;;21.58;12.25;;;;;;;;;;6159816;23;20009;-92
2023/12/14 06:33:28;;;;;;;22.60;13.07;;;;;;;;;;6171417;23;20435;-95
2023/12/14 06:35:55;;;;;;;22.60;12.25;;;;;;;;;;6168700;23;20033;-94
2023/12/14 06:38:21;;;;;;;20.38;11.82;;;;;;;;;;6178918;23;20013;-93
2023/12/14 06:40:47;;;;;;;27.63;14.40;;;;;;;;;;6178013;23;20016;-93
2023/12/14 06:43:14;;;;;;;20.45;11.82;;;;;;;;;;6176895;23;20102;-93
2023/12/14 06:45:40;;;;;;;23.85;12.82;;;;;;;;;;6178909;23;20049;-94
2023/12/14 06:48:10;;;;;;;27.25;13.50;;;;;;;;;;6178165;23;19985;-94
2023/12/14 06:50:36;;;;;;;28.70;14.48;;;;;;;;;;6175495;23;20012;-93
2023/12/14 06:53:02;;;;;;;30.92;15.57;;;;;;;;;;6175744;23;20462;-94
2023/12/14 06:55:28;;;;;;;28.20;14.30;;;;;;;;;;6175708;23;20002;-93
2023/12/14 06:57:57;;;;;;;24.88;14.68;;;;;;;;;;6177958;23;20009;-94
2023/12/14 07:00:34;;;;;;;28.38;15.23;;;;;;;;;;6178536;23;20009;-93
2023/12/14 07:03:00;;;;;;;26.65;14.77;;;;;;;;;;6176339;23;20002;-93
2023/12/14 07:05:27;;;;;;;29.70;15.75;;;;;;;;;;6148517;23;20017;-94
2023/12/14 07:07:53;;;;;;;34.80;18.17;;;;;;;;;;6143341;23;20009;-95
2023/12/14 07:10:19;;;;;;;30.80;16.88;;;;;;;;;;6160741;23;20013;-95
2023/12/14 07:12:46;;;;;;;33.20;18.02;;;;;;;;;;6158439;23;20432;-95
2023/12/14 07:15:13;;;;;;;32.83;18.50;;;;;;;;;;6168247;23;20085;-96
2023/12/14 07:17:39;;;;;;;30.15;17.67;;;;;;;;;;6161273;23;20005;-95
2023/12/14 07:20:06;;;;;;;33.78;17.92;;;;;;;;;;6157941;23;20420;-95
2023/12/14 07:22:32;;;;;;;30.27;17.60;;;;;;;;;;6156789;23;20080;-93
2023/12/14 07:24:58;;;;;;;34.00;19.50;;;;;;;;;;6156565;23;20014;-94
2023/12/14 07:27:25;;;;;;;37.53;21.25;;;;;;;;;;6157417;23;20001;-93
2023/12/14 07:29:51;;;;;;;43.70;23.92;;;;;;;;;;6157320;23;20331;-94
2023/12/14 07:32:17;;;;;;;44.20;23.83;;;;;;;;;;6161077;23;20442;-93
2023/12/14 07:34:44;;;;;;;37.03;20.85;;;;;;;;;;6174149;23;20005;-92
2023/12/14 07:37:11;;;;;;;34.88;19.35;;;;;;;;;;6226528;23;20021;-93
2023/12/14 07:42:38;;;;;;;32.22;18.58;;;;;;;;;;6207746;23;20069;-93
2023/12/14 07:45:09;;;;;;;33.80;18.85;;;;;;;;;;6186849;23;20036;-92
2023/12/14 07:47:35;;;;;;;30.50;17.50;;;;;;;;;;6178196;23;20010;-92
2023/12/14 07:50:02;;;;;;;32.22;18.05;;;;;;;;;;6176905;23;20009;-93
2023/12/14 07:52:28;;;;;;;38.03;20.23;;;;;;;;;;6189671;23;20025;-93
2023/12/14 07:54:58;;;;;;;31.55;17.90;;;;;;;;;;6212546;23;20028;-90
2023/12/14 08:00:03;;;;;;;30.98;18.40;;;;;;;;;;6207515;22;20000;-90
2023/12/14 08:11:27;;;;;;;34.78;19.83;;;;;;;;;;6196083;22;20047;-95
2023/12/14 08:13:57;;;;;;;28.58;17.17;;;;;;;;;;6263085;22;20004;-93
2023/12/14 08:16:23;;;;;;;31.70;17.77;;;;;;;;;;6269027;22;20027;-94
2023/12/14 08:18:52;;;;;;;33.40;19.13;;;;;;;;;;6262932;23;20434;-91
2023/12/14 08:21:18;;;;;;;33.88;20.77;;;;;;;;;;6260186;23;20020;-94
2023/12/14 08:23:45;;;;;;;36.40;21.85;;;;;;;;;;6264366;22;20023;-93
2023/12/14 08:26:12;;;;;;;35.55;20.50;;;;;;;;;;6262411;22;20023;-92
2023/12/14 08:28:43;;;;;;;26.70;17.17;;;;;;;;;;6253767;23;20051;-91
2023/12/14 08:31:11;;;;;;;31.30;18.25;;;;;;;;;;6248067;23;20425;-92
2023/12/14 08:33:38;;;;;;;39.88;22.95;;;;;;;;;;6252133;23;20000;-93
2023/12/14 08:36:07;;;;;;;32.20;21.80;;;;;;;;;;6248691;23;20016;-93
2023/12/14 08:38:33;;;;;;;34.30;22.38;;;;;;;;;;6252742;23;20000;-92
2023/12/14 08:43:35;;;;;;;33.13;20.95;;;;;;;;;;6201215;22;20021;-91
2023/12/14 08:46:01;;;;;;;30.40;20.17;;;;;;;;;;6193649;23;20028;-92
2023/12/14 08:48:28;;;;;;;25.83;17.60;;;;;;;;;;6199003;23;19989;-93
2023/12/14 08:50:55;;;;;;;36.65;21.55;;;;;;;;;;6193801;23;20004;-92
2023/12/14 08:53:21;;;;;;;32.60;19.88;;;;;;;;;;6190894;23;20080;-90
2023/12/14 08:55:58;;;;;;;23.70;16.15;;;;;;;;;;6191349;23;20004;-93
2023/12/14 08:58:26;;;;;;;23.77;17.17;;;;;;;;;;6218768;23;20021;-92
2023/12/14 09:00:52;;;;;;;18.88;13.73;;;;;;;;;;6191341;23;20015;-91
2023/12/14 09:03:22;;;;;;;22.52;14.68;;;;;;;;;;6191465;22;20024;-90
2023/12/14 09:05:51;;;;;;;17.73;12.93;;;;;;;;;;6202185;23;20009;-92
2023/12/14 09:08:24;;;;;;;19.25;15.10;;;;;;;;;;6199092;23;20010;-91
2023/12/14 09:10:50;;;;;;;20.80;16.25;;;;;;;;;;6201829;22;19997;-93
2023/12/14 09:13:16;;;;;;;16.92;13.70;;;;;;;;;;6214263;23;20016;-93
2023/12/14 09:15:42;;;;;;;21.02;17.10;;;;;;;;;;6226961;22;20032;-92
2023/12/14 09:18:08;;;;;;;22.17;17.67;;;;;;;;;;6188026;23;20005;-91
2023/12/14 09:20:40;;;;;;;29.35;22.38;;;;;;;;;;6188976;23;20009;-95
2023/12/14 09:23:06;;;;;;;25.77;19.60;;;;;;;;;;6193893;23;20035;-92
2023/12/14 09:25:33;;;;;;;24.25;21.67;;;;;;;;;;6190385;23;20427;-92
2023/12/14 09:27:59;;;;;;;20.52;17.90;;;;;;;;;;6189719;23;20076;-93
2023/12/14 09:30:26;;;;;;;18.00;16.00;;;;;;;;;;6190491;23;20005;-93
2023/12/14 09:32:54;;;;;;;39.53;35.63;;;;;;;;;;6187086;23;20335;-92
2023/12/14 09:35:21;;;;;;;38.13;35.15;;;;;;;;;;6186822;23;20069;-92
2023/12/14 09:37:47;;;;;;;39.13;36.30;;;;;;;;;;6187324;23;20449;-92
2023/12/14 09:40:16;;;;;;;33.85;31.20;;;;;;;;;;6190233;23;20489;-92
2023/12/14 09:42:42;;;;;;;38.03;35.13;;;;;;;;;;6186991;23;20036;-94
2023/12/14 09:45:09;;;;;;;43.33;40.25;;;;;;;;;;6187150;23;20009;-92
2023/12/14 09:47:36;;;;;;;46.15;42.55;;;;;;;;;;6186881;23;20419;-92
2023/12/14 09:50:05;;;;;;;47.83;44.28;;;;;;;;;;6187027;23;20009;-93
2023/12/14 09:52:33;;;;;;;25.13;22.83;;;;;;;;;;6187320;23;20016;-92
2023/12/14 09:55:03;;;;;;;49.03;45.45;;;;;;;;;;6189809;23;20009;-94
2023/12/14 09:57:33;;;;;;;40.28;37.22;;;;;;;;;;6187602;23;20509;-91
2023/12/14 10:00:13;;;;;;;44.22;41.05;;;;;;;;;;6191791;23;20008;-92
2023/12/14 10:02:40;;;;;;;36.70;33.97;;;;;;;;;;6190061;23;20017;-94
2023/12/14 10:05:27;;;;;;;41.42;38.30;;;;;;;;;;6189738;23;20012;-94
2023/12/14 10:07:53;;;;;;;39.30;36.40;;;;;;;;;;6188722;23;20033;-93
2023/12/14 10:10:37;;;;;;;35.15;32.50;;;;;;;;;;6195451;23;20009;-95
2023/12/14 10:13:04;;;;;;;41.15;38.03;;;;;;;;;;6195972;23;20156;-91
2023/12/14 10:15:30;;;;;;;30.00;27.60;;;;;;;;;;6179652;23;20048;-92
2023/12/14 10:18:31;;;;;;;34.35;31.67;;;;;;;;;;6156961;23;20029;-95
2023/12/14 10:21:21;;;;;;;38.22;35.47;;;;;;;;;;6168431;23;20010;-93
2023/12/14 10:23:49;;;;;;;34.50;31.92;;;;;;;;;;6170396;23;20050;-94
2023/12/14 10:26:16;;;;;;;39.25;36.42;;;;;;;;;;6161074;23;20025;-92
2023/12/14 10:28:42;;;;;;;37.25;34.33;;;;;;;;;;6166604;23;20021;-93
2023/12/14 10:31:10;;;;;;;45.10;41.97;;;;;;;;;;6158807;23;20378;-92
2023/12/14 10:33:46;;;;;;;45.15;41.95;;;;;;;;;;6160080;23;20056;-96
2023/12/14 10:36:17;;;;;;;43.17;40.00;;;;;;;;;;6158801;23;20005;-95
2023/12/14 10:39:01;;;;;;;45.83;42.28;;;;;;;;;;6159425;23;20006;-96
2023/12/14 10:41:31;;;;;;;53.67;49.78;;;;;;;;;;6158584;23;20001;-95
2023/12/14 10:43:58;;;;;;;41.17;38.10;;;;;;;;;;6152316;23;20065;-94
2023/12/14 10:46:24;;;;;;;36.22;33.30;;;;;;;;;;6154824;23;20067;-92
2023/12/14 10:48:54;;;;;;;38.13;35.10;;;;;;;;;;6177283;23;19997;-96
2023/12/14 10:51:42;;;;;;;46.17;42.78;;;;;;;;;;6165598;23;20084;-92
2023/12/14 10:54:37;;;;;;;40.97;37.80;;;;;;;;;;6162752;23;20359;-96
2023/12/14 10:57:05;;;;;;;42.20;39.10;;;;;;;;;;6165033;23;20008;-94
2023/12/14 10:59:33;;;;;;;39.80;36.75;;;;;;;;;;6132029;23;20017;-92
2023/12/14 11:01:59;;;;;;;46.55;42.92;;;;;;;;;;6166167;23;20009;-91
2023/12/14 11:04:28;;;;;;;46.78;43.53;;;;;;;;;;6164122;23;20013;-91
2023/12/14 11:06:54;;;;;;;47.20;43.88;;;;;;;;;;6160955;23;20060;-92
2023/12/14 11:09:24;;;;;;;38.72;35.88;;;;;;;;;;6159512;23;20014;-92
2023/12/14 11:11:53;;;;;;;37.28;34.50;;;;;;;;;;6156411;23;20009;-92
2023/12/14 11:14:20;;;;;;;38.92;36.05;;;;;;;;;;6156701;23;20009;-92
2023/12/14 11:16:49;;;;;;;37.40;34.58;;;;;;;;;;6181554;23;20020;-91
2023/12/14 11:19:44;;;;;;;33.13;30.83;;;;;;;;;;6202995;23;19992;-92
2023/12/14 11:22:12;;;;;;;31.27;28.95;;;;;;;;;;6189370;23;20047;-93
2023/12/14 11:24:44;;;;;;;31.42;29.13;;;;;;;;;;6185713;23;20024;-92
2023/12/14 11:30:21;;;;;;;26.30;24.40;;;;;;;;;;6195863;23;20029;-94
2023/12/14 11:32:49;;;;;;;23.75;21.92;;;;;;;;;;6171797;23;20067;-93
2023/12/14 11:35:52;;;;;;;26.98;25.08;;;;;;;;;;6178732;23;20013;-96
2023/12/14 11:38:20;;;;;;;22.92;21.02;;;;;;;;;;6170888;23;20046;-92
2023/12/14 11:41:02;;;;;;;31.48;29.17;;;;;;;;;;6190358;23;20005;-91
2023/12/14 11:46:32;;;;;;;27.50;25.45;;;;;;;;;;6192252;23;20067;-91
2023/12/14 11:48:58;;;;;;;25.58;23.65;;;;;;;;;;6174571;23;20024;-91
2023/12/14 11:51:26;;;;;;;31.98;29.58;;;;;;;;;;6241994;23;20008;-91
2023/12/14 11:56:23;;;;;;;34.55;32.05;;;;;;;;;;6219488;23;20016;-91
2023/12/14 11:58:56;;;;;;;40.67;37.78;;;;;;;;;;6190513;23;20257;-92
2023/12/14 12:01:31;;;;;;;44.77;41.77;;;;;;;;;;6181559;23;20016;-93
2023/12/14 12:03:57;;;;;;;44.55;41.55;;;;;;;;;;6197385;23;20016;-92
2023/12/14 12:06:25;;;;;;;53.00;49.13;;;;;;;;;;6195541;23;20008;-91
2023/12/14 12:08:51;;;;;;;39.10;36.13;;;;;;;;;;6193532;23;20031;-92
2023/12/14 12:11:18;;;;;;;36.22;33.35;;;;;;;;;;6191779;23;20012;-91
2023/12/14 12:13:44;;;;;;;30.65;27.88;;;;;;;;;;6191850;23;20012;-92
2023/12/14 12:16:10;;;;;;;19.77;17.88;;;;;;;;;;6191544;23;20441;-89
2023/12/14 12:18:47;;;;;;;19.45;17.63;;;;;;;;;;6190552;23;20063;-89
2023/12/14 12:21:13;;;;;;;20.27;18.40;;;;;;;;;;6195575;23;20020;-89
2023/12/14 12:24:05;;;;;;;15.27;13.70;;;;;;;;;;6179221;23;20106;-91
2023/12/14 12:26:31;;;;;;;19.73;17.83;;;;;;;;;;6194887;23;20015;-92
2023/12/14 12:28:57;;;;;;;18.30;16.45;;;;;;;;;;6207138;23;20015;-90
2023/12/14 12:31:27;;;;;;;19.58;16.70;;;;;;;;;;6171337;23;20023;-91
2023/12/14 12:33:53;;;;;;;18.17;15.90;;;;;;;;;;6203892;23;20020;-91
2023/12/14 12:36:21;;;;;;;13.32;10.68;;;;;;;;;;6241550;22;20012;-91
2023/12/14 12:38:48;;;;;;;15.77;13.07;;;;;;;;;;6223429;22;20023;-91
2023/12/14 12:41:14;;;;;;;13.30;10.15;;;;;;;;;;6193296;23;20047;-93
2023/12/14 12:46:16;;;;;;;14.45;9.80;;;;;;;;;;6215494;23;20021;-93
2023/12/14 12:51:31;;;;;;;14.70;9.90;;;;;;;;;;6219953;23;20028;-93
2023/12/14 12:54:00;;;;;;;15.73;9.88;;;;;;;;;;6196013;23;20311;-91
2023/12/14 13:04:21;;;;;;;18.40;12.00;;;;;;;;;;6172930;23;20024;-93
2023/12/14 13:06:50;;;;;;;20.10;12.07;;;;;;;;;;6188752;23;20919;-93
2023/12/14 13:09:17;;;;;;;19.70;11.60;;;;;;;;;;6181409;23;20025;-93
2023/12/14 13:11:54;;;;;;;17.63;10.50;;;;;;;;;;6168069;23;20013;-92
2023/12/14 13:14:39;;;;;;;18.45;11.93;;;;;;;;;;6170964;23;20001;-93
2023/12/14 13:17:17;;;;;;;16.88;10.90;;;;;;;;;;6206050;23;20020;-92
2023/12/14 13:19:44;;;;;;;21.48;12.65;;;;;;;;;;6170686;23;20013;-92
2023/12/14 13:24:51;;;;;;;22.02;10.35;;;;;;;;;;6234017;22;20369;-92
2023/12/14 13:27:17;;;;;;;20.05;10.95;;;;;;;;;;6196034;23;20001;-91
2023/12/14 13:29:52;;;;;;;18.25;11.48;;;;;;;;;;6203022;23;20023;-93
2023/12/14 13:32:17;;;;;;;;;;;;;;;;;;6188025;23;20037;-90
2023/12/14 13:34:44;;;;;;;15.82;9.55;;;;;;;;;;6214100;22;19916;-90
2023/12/14 13:40:06;;;;;;;17.65;10.38;;;;;;;;;;6215295;22;20021;-94
2023/12/14 13:42:32;;;;;;;18.95;11.20;;;;;;;;;;6177423;23;20028;-92
2023/12/14 13:44:58;;;;;;;22.67;12.57;;;;;;;;;;6177493;23;20009;-93
2023/12/14 13:47:33;;;;;;;22.40;12.88;;;;;;;;;;6180196;23;20036;-90
2023/12/14 13:49:59;;;;;;;18.85;11.27;;;;;;;;;;6200079;22;20024;-93
2023/12/14 13:57:43;;;;;;;17.52;11.02;;;;;;;;;;6201854;22;20443;-92
2023/12/14 14:00:24;;;;;;;19.90;10.63;;;;;;;;;;6202124;23;20013;-91
2023/12/14 14:02:51;;;;;;;16.33;9.18;;;;;;;;;;6186706;23;20017;-94
2023/12/14 14:05:22;;;;;;;13.43;8.38;;;;;;;;;;6192019;23;20048;-92
2023/12/14 14:07:57;;;;;;;12.88;8.77;;;;;;;;;;6182127;23;20012;-93
2023/12/14 14:10:23;;;;;;;16.10;10.55;;;;;;;;;;6194617;23;20009;-90
2023/12/14 14:12:50;;;;;;;18.08;10.63;;;;;;;;;;6197333;23;20091;-91
2023/12/14 14:15:16;;;;;;;14.30;8.88;;;;;;;;;;6201060;23;20484;-91
2023/12/14 14:17:42;;;;;;;20.45;11.07;;;;;;;;;;6194708;23;20017;-94
2023/12/14 14:20:09;;;;;;;16.35;10.20;;;;;;;;;;6179806;22;20017;-91
2023/12/14 14:25:31;;;;;;;18.42;10.75;;;;;;;;;;6197569;23;20108;-93
2023/12/14 14:28:10;;;;;;;20.88;11.35;;;;;;;;;;6191846;23;20131;-92
2023/12/14 14:30:36;;;;;;;15.55;9.55;;;;;;;;;;6186347;23;20039;-91
2023/12/14 14:33:02;;;;;;;18.02;10.23;;;;;;;;;;6166504;23;20036;-91
2023/12/14 14:35:28;;;;;;;17.75;11.07;;;;;;;;;;6166089;23;20001;-91
2023/12/14 14:37:55;;;;;;;17.58;10.10;;;;;;;;;;6162472;23;20001;-90
2023/12/14 14:40:22;;;;;;;17.98;9.85;;;;;;;;;;6162204;23;20001;-92
2023/12/14 14:42:49;;;;;;;18.42;11.18;;;;;;;;;;6165694;23;20009;-91
2023/12/14 14:45:15;;;;;;;19.33;12.13;;;;;;;;;;6162433;23;20025;-91
2023/12/14 14:47:44;;;;;;;16.92;10.48;;;;;;;;;;6162184;23;20005;-93
2023/12/14 14:50:14;;;;;;;18.90;11.02;;;;;;;;;;6162042;23;20092;-93
2023/12/14 14:55:29;;;;;;;19.05;11.40;;;;;;;;;;6238016;22;20016;-92
2023/12/14 15:00:32;;;;;;;22.20;13.02;;;;;;;;;;6209173;22;21624;-95
2023/12/14 15:02:59;;;;;;;20.92;13.18;;;;;;;;;;6223908;22;20056;-93
2023/12/14 15:08:10;;;;;;;24.92;14.15;;;;;;;;;;6217549;22;20050;-96
2023/12/14 15:20:28;;;;;;;26.92;14.27;;;;;;;;;;6202861;22;20138;-95
2023/12/14 15:25:54;;;;;;;22.67;13.63;;;;;;;;;;6181996;22;21567;31
2023/12/14 15:38:33;;;;;;;28.80;14.73;;;;;;;;;;6184808;22;20045;-96
2023/12/14 15:41:00;;;;;;;27.77;15.27;;;;;;;;;;6129790;23;1371691;-93
2023/12/14 15:43:26;;;;;;;22.58;13.00;;;;;;;;;;6153341;23;20025;-93
2023/12/14 15:45:52;;;;;;;25.67;15.80;;;;;;;;;;6174098;23;20036;-94
2023/12/14 15:48:18;;;;;;;29.55;17.02;;;;;;;;;;6196729;23;20088;-92
2023/12/14 15:53:17;;;;;;;95.00;45.47;;;;;;;;;;6211419;22;20012;-94
2023/12/14 15:55:43;;;;;;;62.08;32.45;;;;;;;;;;6195594;23;20008;-93
2023/12/14 15:58:11;;;;;;;39.08;21.40;;;;;;;;;;6192192;23;20027;-94
2023/12/14 16:05:40;;;;;;;57.28;29.63;;;;;;;;;;6204325;23;20012;-95